Etusivu
METAR-TAF:

METAR-TAF

Lentoasemat :

Powell River, Brittiläinen Kolumbia, Kanada

Leveyspiiri: 49-50N, Pituuspiiri: 124-30W, korkeus merenpinnasta: 130 m

Tämänhetkinen sää

Tämä raportti tehtiin 50 minuuttia sitten, kello 18.21 UTC
Tuuli 4 kn idästä/kaakosta
Lämpötila 14°C
Kosteus 94%
Ilmanpaine 1017 hPa
Näkyvyys: 32.2 km
Muutamia pilviä 2000 ft:n korkeudessa
Hajonneita pilviä 3300 ft:n korkeudessa

METAR: CYPW 071821Z 12004KT 20SM FEW020 BKN033 14/13 A3004 RMK CU2SC5 SLP174

Aika: 12:11 (19:11 UTC)


TAF: puuttuu

Säähavainnot ja -ennusteet yli 4000 lentoasemalta (METAR- ja TAF-raportit).

Käytössä olevat sääasemat on merkitty karttaan keltaisilla ja punaisilla pisteillä.

Aseta hiiri pisteen päälle nähdäksesi sääaseman nimen.

Klikkaa sitten nähdäksesi säähavainnot ja -ennusteet.

Kartan vaihtaminen: klikkaa mustalla rastilla varustettuja vihreitä pisteitä, niin voit zoomata sisään; viivalla varustettua vihreää pistettä, niin voit zoomata ulos tai vihreitä nuolia, niin pääset viereisille kartoille.


METAR-TAF: